createdAt,value
2023-05-13T00:03:01.920Z,2.03
2023-05-13T00:08:07.201Z,2.40
2023-05-13T00:13:08.969Z,2.42
2023-05-13T00:18:11.135Z,2.17
2023-05-13T00:23:12.820Z,2.30
2023-05-13T00:28:15.135Z,2.20
2023-05-13T00:33:17.302Z,2.47
2023-05-13T00:38:19.021Z,2.25
2023-05-13T00:43:21.505Z,2.45
2023-05-13T00:48:23.676Z,2.33
2023-05-13T00:53:25.569Z,2.75
2023-05-13T00:58:27.522Z,2.77
2023-05-13T01:03:39.337Z,2.30
2023-05-13T01:08:40.998Z,2.40
2023-05-13T01:13:47.960Z,2.53
2023-05-13T01:18:56.559Z,2.80
2023-05-13T01:23:59.451Z,2.88
2023-05-13T01:29:01.274Z,3.10
2023-05-13T01:34:03.797Z,2.85
2023-05-13T01:39:06.245Z,2.90
2023-05-13T01:44:08.720Z,3.35
2023-05-13T01:49:10.701Z,2.90
2023-05-13T01:54:12.509Z,3.00
2023-05-13T01:59:19.962Z,3.30
2023-05-13T02:04:22.123Z,3.40
2023-05-13T02:09:24.372Z,3.40
2023-05-13T02:14:26.383Z,3.33
2023-05-13T02:19:28.092Z,3.42
2023-05-13T02:24:31.083Z,3.30
2023-05-13T02:29:34.091Z,3.10
2023-05-13T02:34:35.968Z,3.38
2023-05-13T02:39:38.179Z,3.30
2023-05-13T02:44:40.471Z,3.67
2023-05-13T02:49:43.676Z,4.03
2023-05-13T02:54:47.937Z,3.50
2023-05-13T02:59:50.244Z,3.30
2023-05-13T03:04:52.201Z,3.80
2023-05-13T03:09:54.098Z,3.60
2023-05-13T03:14:56.461Z,4.00
2023-05-13T03:19:58.269Z,3.75
2023-05-13T03:25:00.129Z,3.90
2023-05-13T03:30:08.599Z,4.25
2023-05-13T03:35:17.772Z,4.03
2023-05-13T03:40:19.757Z,3.93
2023-05-13T03:45:22.116Z,4.43
2023-05-13T03:50:26.407Z,4.68
2023-05-13T03:55:28.333Z,4.40
2023-05-13T04:00:30.363Z,4.70
2023-05-13T04:05:32.693Z,4.85
2023-05-13T04:10:34.782Z,4.97
2023-05-13T04:15:36.848Z,5.00
2023-05-13T04:20:41.049Z,4.97
2023-05-13T04:25:43.268Z,5.00
2023-05-13T04:30:45.277Z,5.00
2023-05-13T04:40:49.624Z,5.07
2023-05-13T04:45:57.969Z,5.32
2023-05-13T04:50:59.988Z,4.90
2023-05-13T04:56:02.417Z,5.22
2023-05-13T05:06:07.404Z,5.50
2023-05-13T05:11:10.695Z,5.15
2023-05-13T05:16:12.752Z,5.55
2023-05-13T05:21:15.008Z,5.40
2023-05-13T05:26:17.417Z,5.35
2023-05-13T05:31:19.383Z,4.93
2023-05-13T05:36:21.764Z,5.05
2023-05-13T05:41:23.616Z,4.83
2023-05-13T05:46:26.234Z,5.18
2023-05-13T05:51:28.722Z,5.20
2023-05-13T05:56:30.564Z,5.30
2023-05-13T06:01:36.831Z,5.37
2023-05-13T06:06:40.456Z,5.82
2023-05-13T06:11:42.764Z,6.05
2023-05-13T06:16:45.073Z,5.70
2023-05-13T06:21:46.879Z,6.18
2023-05-13T06:26:49.000Z,5.07
2023-05-13T06:31:50.854Z,5.30
2023-05-13T06:36:52.651Z,5.33
2023-05-13T06:41:55.625Z,5.40
2023-05-13T06:47:03.018Z,5.80
2023-05-13T06:52:05.540Z,5.32
2023-05-13T06:57:07.457Z,4.90
2023-05-13T07:02:09.954Z,4.90
2023-05-13T07:07:11.824Z,4.63
2023-05-13T07:12:14.460Z,5.00
2023-05-13T07:17:17.174Z,4.57
2023-05-13T07:22:19.089Z,4.80
2023-05-13T07:27:21.798Z,4.45
2023-05-13T07:32:23.819Z,4.22
2023-05-13T07:37:25.550Z,4.70
2023-05-13T07:42:29.846Z,4.55
2023-05-13T07:47:32.041Z,4.45
2023-05-13T07:52:36.951Z,4.10
2023-05-13T07:57:38.679Z,4.18
2023-05-13T08:02:42.780Z,4.45
2023-05-13T08:07:46.240Z,4.20
2023-05-13T08:13:02.782Z,4.20
2023-05-13T08:18:09.043Z,3.80
2023-05-13T08:23:13.623Z,4.25
2023-05-13T08:28:17.885Z,3.63
2023-05-13T08:33:25.481Z,3.55
2023-05-13T08:38:27.267Z,3.17
2023-05-13T08:43:30.547Z,3.78
2023-05-13T08:48:33.793Z,3.33
2023-05-13T08:53:36.295Z,3.15
2023-05-13T08:58:39.209Z,3.42
2023-05-13T09:03:57.852Z,3.40
2023-05-13T09:08:59.729Z,3.08
2023-05-13T09:14:03.689Z,3.38
2023-05-13T09:19:07.581Z,3.05
2023-05-13T09:24:18.407Z,3.20
2023-05-13T09:29:30.350Z,3.30
2023-05-13T09:34:34.263Z,3.13
2023-05-13T09:39:41.301Z,3.25
2023-05-13T09:44:46.675Z,3.13
2023-05-13T09:49:56.157Z,3.10
2023-05-13T09:54:59.508Z,2.63
2023-05-13T10:00:05.095Z,2.67
2023-05-13T10:05:12.679Z,2.63
2023-05-13T10:10:14.964Z,2.55
2023-05-13T10:15:17.472Z,2.67
2023-05-13T10:20:19.659Z,2.50
2023-05-13T10:25:22.348Z,2.70
2023-05-13T10:30:26.587Z,2.83
2023-05-13T10:35:37.121Z,2.80
2023-05-13T10:41:17.416Z,2.50
2023-05-13T10:46:19.415Z,2.75
2023-05-13T10:51:24.563Z,2.77
2023-05-13T10:56:28.837Z,2.20
2023-05-13T11:01:43.186Z,2.28
2023-05-13T11:06:46.448Z,2.30
2023-05-13T11:11:53.072Z,2.20
2023-05-13T11:17:01.116Z,2.20
2023-05-13T11:22:12.800Z,1.77
2023-05-13T11:27:18.509Z,1.70
2023-05-13T11:32:54.264Z,1.75
2023-05-13T11:37:59.834Z,1.98
2023-05-13T11:43:02.411Z,1.55
2023-05-13T11:48:22.082Z,1.83
2023-05-13T11:53:23.864Z,1.50
2023-05-13T11:58:25.829Z,1.90
2023-05-13T12:03:28.320Z,1.70
2023-05-13T12:08:30.466Z,1.50
2023-05-13T12:13:32.285Z,1.73
2023-05-13T12:18:34.524Z,1.52
2023-05-13T12:23:40.813Z,1.50
2023-05-13T12:28:42.746Z,1.77
2023-05-13T12:33:47.275Z,1.60
2023-05-13T12:39:00.710Z,1.58
2023-05-13T12:44:10.988Z,1.33
2023-05-13T12:49:15.048Z,1.40
2023-05-13T12:54:17.262Z,1.40
2023-05-13T12:59:19.331Z,1.40
2023-05-13T13:04:21.105Z,1.65
2023-05-13T13:09:22.995Z,1.60
2023-05-13T13:14:26.107Z,1.20
2023-05-13T13:19:27.860Z,1.20
2023-05-13T13:24:29.997Z,1.90
2023-05-13T13:29:32.336Z,1.67
2023-05-13T13:34:34.096Z,2.00
2023-05-13T13:39:35.860Z,2.13
2023-05-13T13:44:39.444Z,1.40
2023-05-13T13:49:41.288Z,10.98
2023-05-13T13:54:43.087Z,1.27
2023-05-13T13:59:44.786Z,1.30
2023-05-13T14:04:46.528Z,1.33
2023-05-13T14:09:50.021Z,1.50
2023-05-13T14:14:51.839Z,1.10
2023-05-13T14:19:55.398Z,1.67
2023-05-13T14:24:58.920Z,1.73
2023-05-13T14:30:00.971Z,2.00
2023-05-13T14:35:02.680Z,2.10
2023-05-13T14:40:04.886Z,2.22
2023-05-13T14:45:07.327Z,2.00
2023-05-13T14:50:09.177Z,2.25
2023-05-13T14:55:11.299Z,1.97
2023-05-13T15:00:14.161Z,2.08
2023-05-13T15:05:16.043Z,2.25
2023-05-13T15:10:17.864Z,2.28
2023-05-13T15:15:20.063Z,1.70
2023-05-13T15:20:24.367Z,11.20
2023-05-13T15:25:26.320Z,2.40
2023-05-13T15:30:28.826Z,3.63
2023-05-13T15:35:30.586Z,1.80
2023-05-13T15:40:34.388Z,1.88
2023-05-13T15:45:36.417Z,1.97
2023-05-13T15:50:38.241Z,1.90
2023-05-13T15:55:40.196Z,1.83
2023-05-13T16:00:42.115Z,1.83
2023-05-13T16:05:44.074Z,1.75
2023-05-13T16:10:45.820Z,1.60
2023-05-13T16:15:47.568Z,1.85
2023-05-13T16:20:51.419Z,10.52
2023-05-13T16:25:53.639Z,1.88
2023-05-13T16:30:57.306Z,2.30
2023-05-13T16:36:00.276Z,1.50
2023-05-13T16:41:01.936Z,1.50
2023-05-13T16:46:04.086Z,1.40
2023-05-13T16:51:05.785Z,1.47
2023-05-13T16:56:07.608Z,1.30
2023-05-13T17:01:09.525Z,1.70
2023-05-13T17:06:13.112Z,4.40
2023-05-13T17:11:17.964Z,3.17
2023-05-13T17:16:19.694Z,1.27
2023-05-13T17:26:24.377Z,1.50
2023-05-13T17:31:27.398Z,4.47
2023-05-13T17:36:29.312Z,1.55
2023-05-13T17:41:31.329Z,1.80
2023-05-13T17:46:33.053Z,1.60
2023-05-13T17:51:34.741Z,2.20
2023-05-13T17:56:36.403Z,1.85
2023-05-13T18:01:38.475Z,1.70
2023-05-13T18:06:40.227Z,1.60
2023-05-13T18:11:41.923Z,1.70
2023-05-13T18:16:43.944Z,1.77
2023-05-13T18:21:46.637Z,2.00
2023-05-13T18:26:48.435Z,2.22
2023-05-13T18:31:50.160Z,6.80
2023-05-13T18:36:52.493Z,14.77
2023-05-13T18:41:54.277Z,4.95
2023-05-13T18:46:56.014Z,2.95
2023-05-13T18:51:57.927Z,3.50
2023-05-13T18:57:00.450Z,3.87
2023-05-13T19:02:02.330Z,5.07
2023-05-13T19:07:04.423Z,5.00
2023-05-13T19:12:07.520Z,5.00
2023-05-13T19:22:11.091Z,5.82
2023-05-13T19:27:12.897Z,5.80
2023-05-13T19:32:15.205Z,5.15
2023-05-13T19:37:17.036Z,4.60
2023-05-13T19:42:19.002Z,3.80
2023-05-13T19:47:21.148Z,4.07
2023-05-13T19:52:22.824Z,3.03
2023-05-13T19:57:24.499Z,3.72
2023-05-13T20:02:26.787Z,3.90
2023-05-13T20:07:29.172Z,3.75
2023-05-13T20:12:31.575Z,3.95
2023-05-13T20:17:33.407Z,4.90
2023-05-13T20:22:35.266Z,5.60
2023-05-13T20:27:37.166Z,6.13
2023-05-13T20:32:39.124Z,6.63
2023-05-13T20:37:40.869Z,8.13
2023-05-13T20:42:42.679Z,8.50
2023-05-13T20:47:44.842Z,8.90
2023-05-13T20:52:47.007Z,9.33
2023-05-13T20:57:50.435Z,10.02
2023-05-13T21:02:53.529Z,10.63
2023-05-13T21:12:57.260Z,9.85
2023-05-13T21:17:59.539Z,10.65
2023-05-13T21:23:01.408Z,9.60
2023-05-13T21:28:03.808Z,9.85
2023-05-13T21:33:05.655Z,9.98
2023-05-13T21:38:12.173Z,10.00
2023-05-13T21:43:14.488Z,9.45
2023-05-13T21:48:16.602Z,10.23
2023-05-13T21:53:18.406Z,10.57
2023-05-13T21:58:21.916Z,10.52
2023-05-13T22:03:26.341Z,9.45
2023-05-13T22:08:29.420Z,10.00
2023-05-13T22:13:31.630Z,9.82
2023-05-13T22:18:33.649Z,9.90
2023-05-13T22:23:35.772Z,10.27
2023-05-13T22:28:37.479Z,10.25
2023-05-13T22:33:39.345Z,9.35
2023-05-13T22:38:42.082Z,9.10
2023-05-13T22:48:46.074Z,8.98
2023-05-13T22:53:48.063Z,10.07
2023-05-13T22:58:49.801Z,9.02
2023-05-13T23:03:52.239Z,10.20
2023-05-13T23:08:54.032Z,8.93
2023-05-13T23:13:55.789Z,9.23
2023-05-13T23:18:58.032Z,9.52
2023-05-13T23:23:59.961Z,9.05
2023-05-13T23:29:02.279Z,8.40
2023-05-13T23:34:04.466Z,9.18
2023-05-13T23:39:06.299Z,9.93
2023-05-13T23:44:08.016Z,8.27
2023-05-13T23:49:09.862Z,8.73
2023-05-13T23:54:11.764Z,7.88
2023-05-13T23:59:13.485Z,9.18
